Pagrindinis puslapis
METAR-TAF:

METAR-TAF

Oro uostai :

Brestas, Baltarusija

platuma: 52-06-30N, ilguma: 023-53-48E, Aukštis: 143 m

Dabartinis oras

Ataskaita buvo paskelbta 13 valandos ir 14 minutes, ne 13:00 UTC
Vėjas 4 kt iš Pietryčių
Temperatūra 16°C
Drėgmė 55%
Slėgis 1015 hPa
Matomumas: 7000 m

METAR: UMBB 271300Z 14002MPS 7000 NSC 16/07 Q1015 NOSIG

Laikas: 05:14 (02:14 UTC)

Prognozė

Ataskaita buvo paskelbta 15 valandos ir 3 minutes, ne 11:11 UTC
Prognozė galioja nuo 27 metu 12 UTC su 27 metu 21 UTC
Vėjas 6 kt iš Pietryčių
Matomumas 10 km arba daugiau
Išsisklaidę debesys ne aukštis 2000 ft
Laikinai
nuo 27 metu 12 UTC su 27 metu 18 UTC
Vėjas 6 kt iš Pietų/Pietryčių su gūsio iki 16 kt
Išsisklaidę debesys ne aukštis 1300 ft
Laikinai
nuo 27 metu 18 UTC su 27 metu 21 UTC
Vėjas 6 kt iš Pietų
Matomumas: 4000 m
Su prošvaistėmis ne aukštis 1100 ft, Liūtiniai kamuoliniai debesys.
lietus, rūkana,

TAF: UMBB 271111Z 2712/2721 14003MPS 9999 SCT020 TEMPO 2712/2718 16003G08MPS SCT013 TEMPO 2718/2721 18003MPS 4000 -SHRA BR BKN011CB

Orai ataskaitas ir orų prognozės (METAR, TAF).

turimą stotys yra geltonos ir raudonos taškus žemėlapyje.

Perkelti pele per norėdami pamatyti stoties vardą.

Tada spustelėkite, norėdami matyti oro stebėjimo ir prognozės.

Norėdami pakeisti žemėlapį: spustelėkite ant žalios mygtukų su juodo kryžiaus žemyn,; žalią mygtuką su brūkšneliu, jei norite nutolinti; arba žalių rodyklių gretimoms žemėlapius.


METAR-TAF: